sensor_id;sensor_type;location;lat;lon;timestamp;temperature;humidity
28171;DHT22;15458;53.346;-1.688;2023-04-25T00:01:20;3.00;98.50
28171;DHT22;15458;53.346;-1.688;2023-04-25T00:03:47;3.00;98.60
28171;DHT22;15458;53.346;-1.688;2023-04-25T00:06:13;3.00;98.80
28171;DHT22;15458;53.346;-1.688;2023-04-25T00:08:40;2.90;98.90
28171;DHT22;15458;53.346;-1.688;2023-04-25T00:11:06;3.00;99.10
28171;DHT22;15458;53.346;-1.688;2023-04-25T00:13:31;3.00;99.20
28171;DHT22;15458;53.346;-1.688;2023-04-25T00:15:57;2.90;99.30
28171;DHT22;15458;53.346;-1.688;2023-04-25T00:18:23;2.80;99.40
28171;DHT22;15458;53.346;-1.688;2023-04-25T00:20:49;2.80;99.50
28171;DHT22;15458;53.346;-1.688;2023-04-25T00:23:17;2.80;99.70
28171;DHT22;15458;53.346;-1.688;2023-04-25T00:25:48;2.70;99.90
28171;DHT22;15458;53.346;-1.688;2023-04-25T00:28:14;2.70;99.90
28171;DHT22;15458;53.346;-1.688;2023-04-25T00:30:41;2.60;99.90
28171;DHT22;15458;53.346;-1.688;2023-04-25T00:33:07;2.60;99.90
28171;DHT22;15458;53.346;-1.688;2023-04-25T00:35:33;2.60;99.90
28171;DHT22;15458;53.346;-1.688;2023-04-25T00:37:59;2.50;99.90
28171;DHT22;15458;53.346;-1.688;2023-04-25T00:40:25;2.50;99.90
28171;DHT22;15458;53.346;-1.688;2023-04-25T00:42:54;2.40;99.90
28171;DHT22;15458;53.346;-1.688;2023-04-25T00:45:19;2.40;99.90
28171;DHT22;15458;53.346;-1.688;2023-04-25T00:47:46;2.40;99.90
28171;DHT22;15458;53.346;-1.688;2023-04-25T00:50:13;2.40;99.90
28171;DHT22;15458;53.346;-1.688;2023-04-25T00:52:41;2.30;99.90
28171;DHT22;15458;53.346;-1.688;2023-04-25T00:55:08;2.30;99.90
28171;DHT22;15458;53.346;-1.688;2023-04-25T00:57:34;2.30;99.90
28171;DHT22;15458;53.346;-1.688;2023-04-25T01:00:01;2.20;99.90
28171;DHT22;15458;53.346;-1.688;2023-04-25T01:02:27;2.20;99.90
28171;DHT22;15458;53.346;-1.688;2023-04-25T01:04:53;2.20;99.90
28171;DHT22;15458;53.346;-1.688;2023-04-25T01:07:19;2.20;99.90
28171;DHT22;15458;53.346;-1.688;2023-04-25T01:09:46;2.10;99.90
28171;DHT22;15458;53.346;-1.688;2023-04-25T01:12:12;2.10;99.90
28171;DHT22;15458;53.346;-1.688;2023-04-25T01:14:38;2.10;99.90
28171;DHT22;15458;53.346;-1.688;2023-04-25T01:17:04;2.00;99.90
28171;DHT22;15458;53.346;-1.688;2023-04-25T01:19:30;2.00;99.90
28171;DHT22;15458;53.346;-1.688;2023-04-25T01:21:56;2.00;99.90
28171;DHT22;15458;53.346;-1.688;2023-04-25T01:24:22;2.00;99.90
28171;DHT22;15458;53.346;-1.688;2023-04-25T01:26:48;1.90;99.90
28171;DHT22;15458;53.346;-1.688;2023-04-25T01:29:19;1.80;99.90
28171;DHT22;15458;53.346;-1.688;2023-04-25T01:31:46;1.80;99.90
28171;DHT22;15458;53.346;-1.688;2023-04-25T01:34:12;1.80;99.90
28171;DHT22;15458;53.346;-1.688;2023-04-25T01:36:38;1.80;99.90
28171;DHT22;15458;53.346;-1.688;2023-04-25T01:39:04;1.70;99.90
28171;DHT22;15458;53.346;-1.688;2023-04-25T01:41:30;1.70;99.90
28171;DHT22;15458;53.346;-1.688;2023-04-25T01:43:56;1.70;99.90
28171;DHT22;15458;53.346;-1.688;2023-04-25T01:46:22;1.60;99.90
28171;DHT22;15458;53.346;-1.688;2023-04-25T01:48:48;1.60;99.90
28171;DHT22;15458;53.346;-1.688;2023-04-25T01:51:14;1.50;99.90
28171;DHT22;15458;53.346;-1.688;2023-04-25T01:53:41;1.50;99.90
28171;DHT22;15458;53.346;-1.688;2023-04-25T01:56:06;1.50;99.90
28171;DHT22;15458;53.346;-1.688;2023-04-25T01:58:32;1.50;99.90
28171;DHT22;15458;53.346;-1.688;2023-04-25T02:00:58;1.40;99.90
28171;DHT22;15458;53.346;-1.688;2023-04-25T02:03:23;1.40;99.90
28171;DHT22;15458;53.346;-1.688;2023-04-25T02:05:49;1.40;99.90
28171;DHT22;15458;53.346;-1.688;2023-04-25T02:08:17;1.40;99.90
28171;DHT22;15458;53.346;-1.688;2023-04-25T02:10:43;1.40;99.90
28171;DHT22;15458;53.346;-1.688;2023-04-25T02:13:09;1.40;99.90
28171;DHT22;15458;53.346;-1.688;2023-04-25T02:15:34;1.30;99.90
28171;DHT22;15458;53.346;-1.688;2023-04-25T02:18:00;1.30;99.90
28171;DHT22;15458;53.346;-1.688;2023-04-25T02:20:28;1.40;99.90
28171;DHT22;15458;53.346;-1.688;2023-04-25T02:22:54;1.30;99.90
28171;DHT22;15458;53.346;-1.688;2023-04-25T02:25:20;1.40;99.90
28171;DHT22;15458;53.346;-1.688;2023-04-25T02:27:46;1.40;99.90
28171;DHT22;15458;53.346;-1.688;2023-04-25T02:30:13;1.40;99.90
28171;DHT22;15458;53.346;-1.688;2023-04-25T02:32:39;1.40;99.90
28171;DHT22;15458;53.346;-1.688;2023-04-25T02:35:06;1.40;99.90
28171;DHT22;15458;53.346;-1.688;2023-04-25T02:37:33;1.40;99.90
28171;DHT22;15458;53.346;-1.688;2023-04-25T02:39:58;1.40;99.90
28171;DHT22;15458;53.346;-1.688;2023-04-25T02:42:26;1.40;99.90
28171;DHT22;15458;53.346;-1.688;2023-04-25T02:44:51;1.40;99.90
28171;DHT22;15458;53.346;-1.688;2023-04-25T02:47:17;1.40;99.90
28171;DHT22;15458;53.346;-1.688;2023-04-25T02:49:42;1.30;99.90
28171;DHT22;15458;53.346;-1.688;2023-04-25T02:52:08;1.30;99.90
28171;DHT22;15458;53.346;-1.688;2023-04-25T02:54:34;1.30;99.90
28171;DHT22;15458;53.346;-1.688;2023-04-25T02:57:00;1.30;99.90
28171;DHT22;15458;53.346;-1.688;2023-04-25T02:59:27;1.30;99.90
28171;DHT22;15458;53.346;-1.688;2023-04-25T03:01:53;1.20;99.90
28171;DHT22;15458;53.346;-1.688;2023-04-25T03:04:19;1.20;99.90
28171;DHT22;15458;53.346;-1.688;2023-04-25T03:06:45;1.20;99.90
28171;DHT22;15458;53.346;-1.688;2023-04-25T03:09:10;1.20;99.90
28171;DHT22;15458;53.346;-1.688;2023-04-25T03:11:38;1.20;99.90
28171;DHT22;15458;53.346;-1.688;2023-04-25T03:14:04;1.20;99.90
28171;DHT22;15458;53.346;-1.688;2023-04-25T03:16:29;1.20;99.90
28171;DHT22;15458;53.346;-1.688;2023-04-25T03:18:56;1.10;99.90
28171;DHT22;15458;53.346;-1.688;2023-04-25T03:21:22;1.20;99.90
28171;DHT22;15458;53.346;-1.688;2023-04-25T03:23:47;1.10;99.90
28171;DHT22;15458;53.346;-1.688;2023-04-25T03:26:13;1.10;99.90
28171;DHT22;15458;53.346;-1.688;2023-04-25T03:28:39;1.00;99.90
28171;DHT22;15458;53.346;-1.688;2023-04-25T03:31:05;1.00;99.90
28171;DHT22;15458;53.346;-1.688;2023-04-25T03:33:31;1.00;99.90
28171;DHT22;15458;53.346;-1.688;2023-04-25T03:35:57;1.00;99.90
28171;DHT22;15458;53.346;-1.688;2023-04-25T03:38:22;1.00;99.90
28171;DHT22;15458;53.346;-1.688;2023-04-25T03:40:49;1.00;99.90
28171;DHT22;15458;53.346;-1.688;2023-04-25T03:43:16;0.90;99.90
28171;DHT22;15458;53.346;-1.688;2023-04-25T03:45:41;1.00;99.90
28171;DHT22;15458;53.346;-1.688;2023-04-25T03:48:07;0.90;99.90
28171;DHT22;15458;53.346;-1.688;2023-04-25T03:50:33;0.90;99.90
28171;DHT22;15458;53.346;-1.688;2023-04-25T03:52:58;0.90;99.90
28171;DHT22;15458;53.346;-1.688;2023-04-25T03:55:24;0.80;99.90
28171;DHT22;15458;53.346;-1.688;2023-04-25T03:57:50;0.80;99.90
28171;DHT22;15458;53.346;-1.688;2023-04-25T04:00:15;0.80;99.90
28171;DHT22;15458;53.346;-1.688;2023-04-25T04:02:41;0.80;99.90
28171;DHT22;15458;53.346;-1.688;2023-04-25T04:05:07;0.70;99.90
28171;DHT22;15458;53.346;-1.688;2023-04-25T04:07:32;0.70;99.90
28171;DHT22;15458;53.346;-1.688;2023-04-25T04:09:59;0.70;99.90
28171;DHT22;15458;53.346;-1.688;2023-04-25T04:12:24;0.70;99.90
28171;DHT22;15458;53.346;-1.688;2023-04-25T04:14:50;0.70;99.90
28171;DHT22;15458;53.346;-1.688;2023-04-25T04:17:16;0.70;99.90
28171;DHT22;15458;53.346;-1.688;2023-04-25T04:19:41;0.70;99.90
28171;DHT22;15458;53.346;-1.688;2023-04-25T04:22:07;0.70;99.90
28171;DHT22;15458;53.346;-1.688;2023-04-25T04:24:35;0.70;99.90
28171;DHT22;15458;53.346;-1.688;2023-04-25T04:27:01;0.70;99.90
28171;DHT22;15458;53.346;-1.688;2023-04-25T04:29:26;0.70;99.90
28171;DHT22;15458;53.346;-1.688;2023-04-25T04:31:52;0.70;99.90
28171;DHT22;15458;53.346;-1.688;2023-04-25T04:34:18;0.70;99.90
28171;DHT22;15458;53.346;-1.688;2023-04-25T04:36:44;0.70;99.90
28171;DHT22;15458;53.346;-1.688;2023-04-25T04:39:12;0.70;99.90
28171;DHT22;15458;53.346;-1.688;2023-04-25T04:41:38;0.80;99.90
28171;DHT22;15458;53.346;-1.688;2023-04-25T04:44:04;0.70;99.90
28171;DHT22;15458;53.346;-1.688;2023-04-25T04:46:32;0.70;99.90
28171;DHT22;15458;53.346;-1.688;2023-04-25T04:49:06;0.80;99.90
28171;DHT22;15458;53.346;-1.688;2023-04-25T04:51:31;0.80;99.90
28171;DHT22;15458;53.346;-1.688;2023-04-25T04:53:58;0.80;99.90
28171;DHT22;15458;53.346;-1.688;2023-04-25T04:56:28;0.80;99.90
28171;DHT22;15458;53.346;-1.688;2023-04-25T04:58:55;0.80;99.90
28171;DHT22;15458;53.346;-1.688;2023-04-25T05:01:20;0.80;99.90
28171;DHT22;15458;53.346;-1.688;2023-04-25T05:03:46;0.80;99.90
28171;DHT22;15458;53.346;-1.688;2023-04-25T05:06:11;0.80;99.90
28171;DHT22;15458;53.346;-1.688;2023-04-25T05:08:37;0.80;99.90
28171;DHT22;15458;53.346;-1.688;2023-04-25T05:11:03;0.90;99.90
28171;DHT22;15458;53.346;-1.688;2023-04-25T05:13:28;0.80;99.90
28171;DHT22;15458;53.346;-1.688;2023-04-25T05:15:54;0.80;99.90
28171;DHT22;15458;53.346;-1.688;2023-04-25T05:18:20;0.80;99.90
28171;DHT22;15458;53.346;-1.688;2023-04-25T05:20:45;0.80;99.90
28171;DHT22;15458;53.346;-1.688;2023-04-25T05:23:11;0.80;99.90
28171;DHT22;15458;53.346;-1.688;2023-04-25T05:25:37;0.80;99.90
28171;DHT22;15458;53.346;-1.688;2023-04-25T05:28:02;0.80;99.90
28171;DHT22;15458;53.346;-1.688;2023-04-25T05:30:28;0.90;99.90
28171;DHT22;15458;53.346;-1.688;2023-04-25T05:32:54;0.90;99.90
28171;DHT22;15458;53.346;-1.688;2023-04-25T05:35:19;0.90;99.90
28171;DHT22;15458;53.346;-1.688;2023-04-25T05:37:45;0.90;99.90
28171;DHT22;15458;53.346;-1.688;2023-04-25T05:40:12;0.90;99.90
28171;DHT22;15458;53.346;-1.688;2023-04-25T05:42:37;0.90;99.90
28171;DHT22;15458;53.346;-1.688;2023-04-25T05:45:03;0.90;99.90
28171;DHT22;15458;53.346;-1.688;2023-04-25T05:47:29;0.90;99.90
28171;DHT22;15458;53.346;-1.688;2023-04-25T05:49:55;0.90;99.90
28171;DHT22;15458;53.346;-1.688;2023-04-25T05:52:21;0.90;99.90
28171;DHT22;15458;53.346;-1.688;2023-04-25T05:54:46;0.90;99.90
28171;DHT22;15458;53.346;-1.688;2023-04-25T05:57:20;0.90;99.90
28171;DHT22;15458;53.346;-1.688;2023-04-25T05:59:46;1.00;99.90
28171;DHT22;15458;53.346;-1.688;2023-04-25T06:02:12;1.00;99.90
28171;DHT22;15458;53.346;-1.688;2023-04-25T06:04:37;1.00;99.90
28171;DHT22;15458;53.346;-1.688;2023-04-25T06:07:03;1.10;99.90
28171;DHT22;15458;53.346;-1.688;2023-04-25T06:09:38;1.10;99.90
28171;DHT22;15458;53.346;-1.688;2023-04-25T06:12:05;1.10;99.90
28171;DHT22;15458;53.346;-1.688;2023-04-25T06:14:31;1.20;99.90
28171;DHT22;15458;53.346;-1.688;2023-04-25T06:16:57;1.20;99.90
28171;DHT22;15458;53.346;-1.688;2023-04-25T06:19:23;1.20;99.90
28171;DHT22;15458;53.346;-1.688;2023-04-25T06:21:48;1.30;99.90
28171;DHT22;15458;53.346;-1.688;2023-04-25T06:24:14;1.30;99.90
28171;DHT22;15458;53.346;-1.688;2023-04-25T06:26:40;1.40;99.90
28171;DHT22;15458;53.346;-1.688;2023-04-25T06:29:05;1.40;99.90
28171;DHT22;15458;53.346;-1.688;2023-04-25T06:31:31;1.50;99.90
28171;DHT22;15458;53.346;-1.688;2023-04-25T06:33:59;1.50;99.90
28171;DHT22;15458;53.346;-1.688;2023-04-25T06:36:25;1.50;99.90
28171;DHT22;15458;53.346;-1.688;2023-04-25T06:38:51;1.60;99.90
28171;DHT22;15458;53.346;-1.688;2023-04-25T06:41:19;1.70;99.90
28171;DHT22;15458;53.346;-1.688;2023-04-25T06:43:45;1.80;99.90
28171;DHT22;15458;53.346;-1.688;2023-04-25T06:46:10;1.90;99.90
28171;DHT22;15458;53.346;-1.688;2023-04-25T06:48:36;2.00;99.90
28171;DHT22;15458;53.346;-1.688;2023-04-25T06:51:02;2.00;99.90
28171;DHT22;15458;53.346;-1.688;2023-04-25T06:53:28;2.10;99.90
28171;DHT22;15458;53.346;-1.688;2023-04-25T06:55:54;2.10;99.90
28171;DHT22;15458;53.346;-1.688;2023-04-25T06:58:19;2.20;99.90
28171;DHT22;15458;53.346;-1.688;2023-04-25T07:00:45;2.30;99.90
28171;DHT22;15458;53.346;-1.688;2023-04-25T07:03:10;2.30;99.90
28171;DHT22;15458;53.346;-1.688;2023-04-25T07:05:37;2.40;99.90
28171;DHT22;15458;53.346;-1.688;2023-04-25T07:08:03;2.50;99.90
28171;DHT22;15458;53.346;-1.688;2023-04-25T07:10:28;2.60;99.90
28171;DHT22;15458;53.346;-1.688;2023-04-25T07:12:54;2.70;99.90
28171;DHT22;15458;53.346;-1.688;2023-04-25T07:15:20;2.70;99.90
28171;DHT22;15458;53.346;-1.688;2023-04-25T07:17:45;2.80;99.90
28171;DHT22;15458;53.346;-1.688;2023-04-25T07:20:11;2.90;99.90
28171;DHT22;15458;53.346;-1.688;2023-04-25T07:22:37;3.00;99.90
28171;DHT22;15458;53.346;-1.688;2023-04-25T07:25:03;3.00;99.90
28171;DHT22;15458;53.346;-1.688;2023-04-25T07:27:30;3.20;99.90
28171;DHT22;15458;53.346;-1.688;2023-04-25T07:29:56;3.20;99.90
28171;DHT22;15458;53.346;-1.688;2023-04-25T07:32:21;3.30;99.90
28171;DHT22;15458;53.346;-1.688;2023-04-25T07:34:47;3.40;99.90
28171;DHT22;15458;53.346;-1.688;2023-04-25T07:37:13;3.50;99.90
28171;DHT22;15458;53.346;-1.688;2023-04-25T07:39:39;3.60;99.90
28171;DHT22;15458;53.346;-1.688;2023-04-25T07:42:05;3.70;99.90
28171;DHT22;15458;53.346;-1.688;2023-04-25T07:44:34;3.70;99.90
28171;DHT22;15458;53.346;-1.688;2023-04-25T07:47:05;3.80;99.90
28171;DHT22;15458;53.346;-1.688;2023-04-25T07:49:33;3.90;99.90
28171;DHT22;15458;53.346;-1.688;2023-04-25T07:51:59;4.00;99.90
28171;DHT22;15458;53.346;-1.688;2023-04-25T07:54:25;4.00;99.90
28171;DHT22;15458;53.346;-1.688;2023-04-25T07:56:50;4.10;99.90
28171;DHT22;15458;53.346;-1.688;2023-04-25T07:59:16;4.20;99.90
28171;DHT22;15458;53.346;-1.688;2023-04-25T08:01:41;4.30;99.90
28171;DHT22;15458;53.346;-1.688;2023-04-25T08:04:07;4.50;99.90
28171;DHT22;15458;53.346;-1.688;2023-04-25T08:06:33;4.60;99.90
28171;DHT22;15458;53.346;-1.688;2023-04-25T08:08:58;4.60;99.90
28171;DHT22;15458;53.346;-1.688;2023-04-25T08:11:24;4.70;99.90
28171;DHT22;15458;53.346;-1.688;2023-04-25T08:13:50;4.90;99.90
28171;DHT22;15458;53.346;-1.688;2023-04-25T08:16:16;5.00;99.90
28171;DHT22;15458;53.346;-1.688;2023-04-25T08:18:41;5.10;99.90
28171;DHT22;15458;53.346;-1.688;2023-04-25T08:21:07;5.20;99.90
28171;DHT22;15458;53.346;-1.688;2023-04-25T08:23:36;5.30;99.90
28171;DHT22;15458;53.346;-1.688;2023-04-25T08:26:02;5.40;99.20
28171;DHT22;15458;53.346;-1.688;2023-04-25T08:28:28;5.50;98.30
28171;DHT22;15458;53.346;-1.688;2023-04-25T08:30:54;5.60;97.40
28171;DHT22;15458;53.346;-1.688;2023-04-25T08:33:20;5.70;96.10
28171;DHT22;15458;53.346;-1.688;2023-04-25T08:35:45;5.90;95.00
28171;DHT22;15458;53.346;-1.688;2023-04-25T08:38:11;6.00;94.10
28171;DHT22;15458;53.346;-1.688;2023-04-25T08:40:38;6.10;93.20
28171;DHT22;15458;53.346;-1.688;2023-04-25T08:43:06;6.20;92.60
28171;DHT22;15458;53.346;-1.688;2023-04-25T08:45:39;6.30;91.00
28171;DHT22;15458;53.346;-1.688;2023-04-25T08:48:11;6.40;90.10
28171;DHT22;15458;53.346;-1.688;2023-04-25T08:50:40;6.60;88.20
28171;DHT22;15458;53.346;-1.688;2023-04-25T08:53:09;6.70;86.60
28171;DHT22;15458;53.346;-1.688;2023-04-25T08:55:41;6.80;85.10
28171;DHT22;15458;53.346;-1.688;2023-04-25T08:58:07;7.00;83.40
28171;DHT22;15458;53.346;-1.688;2023-04-25T09:00:35;7.10;81.50
28171;DHT22;15458;53.346;-1.688;2023-04-25T09:03:01;7.20;80.10
28171;DHT22;15458;53.346;-1.688;2023-04-25T09:05:28;7.30;79.10
28171;DHT22;15458;53.346;-1.688;2023-04-25T09:07:54;7.50;78.50
28171;DHT22;15458;53.346;-1.688;2023-04-25T09:10:22;7.70;78.10
28171;DHT22;15458;53.346;-1.688;2023-04-25T09:13:04;7.80;77.30
28171;DHT22;15458;53.346;-1.688;2023-04-25T09:15:31;7.90;77.00
28171;DHT22;15458;53.346;-1.688;2023-04-25T09:17:57;8.10;77.30
28171;DHT22;15458;53.346;-1.688;2023-04-25T09:20:23;8.30;76.30
28171;DHT22;15458;53.346;-1.688;2023-04-25T09:23:01;8.40;75.10
28171;DHT22;15458;53.346;-1.688;2023-04-25T09:25:37;8.60;74.00
28171;DHT22;15458;53.346;-1.688;2023-04-25T09:28:06;8.60;73.40
28171;DHT22;15458;53.346;-1.688;2023-04-25T09:30:34;8.80;73.20
28171;DHT22;15458;53.346;-1.688;2023-04-25T09:33:07;9.00;72.40
28171;DHT22;15458;53.346;-1.688;2023-04-25T09:35:38;9.10;71.80
28171;DHT22;15458;53.346;-1.688;2023-04-25T09:38:10;9.30;71.50
28171;DHT22;15458;53.346;-1.688;2023-04-25T09:40:47;9.40;71.40
28171;DHT22;15458;53.346;-1.688;2023-04-25T09:43:22;9.50;69.80
28171;DHT22;15458;53.346;-1.688;2023-04-25T09:45:48;9.60;69.50
28171;DHT22;15458;53.346;-1.688;2023-04-25T09:48:19;9.60;69.00
28171;DHT22;15458;53.346;-1.688;2023-04-25T09:53:38;9.90;67.70
28171;DHT22;15458;53.346;-1.688;2023-04-25T09:56:05;10.00;67.30
28171;DHT22;15458;53.346;-1.688;2023-04-25T09:58:32;10.10;66.80
28171;DHT22;15458;53.346;-1.688;2023-04-25T10:01:01;10.30;66.50
28171;DHT22;15458;53.346;-1.688;2023-04-25T10:03:30;10.40;66.20
28171;DHT22;15458;53.346;-1.688;2023-04-25T10:05:58;10.50;65.50
28171;DHT22;15458;53.346;-1.688;2023-04-25T10:08:24;10.60;64.80
28171;DHT22;15458;53.346;-1.688;2023-04-25T10:10:52;10.70;64.50
28171;DHT22;15458;53.346;-1.688;2023-04-25T10:13:18;10.90;64.20
28171;DHT22;15458;53.346;-1.688;2023-04-25T10:15:44;10.90;63.70
28171;DHT22;15458;53.346;-1.688;2023-04-25T10:18:11;11.00;63.50
28171;DHT22;15458;53.346;-1.688;2023-04-25T10:20:37;11.10;63.60
28171;DHT22;15458;53.346;-1.688;2023-04-25T10:23:16;11.20;62.70
28171;DHT22;15458;53.346;-1.688;2023-04-25T10:25:42;11.40;62.90
28171;DHT22;15458;53.346;-1.688;2023-04-25T10:28:09;11.60;62.10
28171;DHT22;15458;53.346;-1.688;2023-04-25T10:30:34;11.70;61.60
28171;DHT22;15458;53.346;-1.688;2023-04-25T10:33:00;11.70;61.00
28171;DHT22;15458;53.346;-1.688;2023-04-25T10:35:28;11.80;60.70
28171;DHT22;15458;53.346;-1.688;2023-04-25T10:40:28;11.90;59.80
28171;DHT22;15458;53.346;-1.688;2023-04-25T10:42:54;12.00;59.50
28171;DHT22;15458;53.346;-1.688;2023-04-25T10:45:21;12.10;59.30
28171;DHT22;15458;53.346;-1.688;2023-04-25T10:47:47;12.30;59.10
28171;DHT22;15458;53.346;-1.688;2023-04-25T10:50:17;12.40;58.60
28171;DHT22;15458;53.346;-1.688;2023-04-25T10:52:43;12.50;58.10
28171;DHT22;15458;53.346;-1.688;2023-04-25T10:55:09;12.70;58.10
28171;DHT22;15458;53.346;-1.688;2023-04-25T10:57:44;12.90;57.70
28171;DHT22;15458;53.346;-1.688;2023-04-25T11:00:19;13.10;57.20
28171;DHT22;15458;53.346;-1.688;2023-04-25T11:03:07;13.30;56.70
28171;DHT22;15458;53.346;-1.688;2023-04-25T11:05:35;13.40;56.50
28171;DHT22;15458;53.346;-1.688;2023-04-25T11:08:02;13.50;56.00
28171;DHT22;15458;53.346;-1.688;2023-04-25T11:10:32;13.60;55.80
28171;DHT22;15458;53.346;-1.688;2023-04-25T11:13:00;13.70;55.40
28171;DHT22;15458;53.346;-1.688;2023-04-25T11:15:27;13.90;55.20
28171;DHT22;15458;53.346;-1.688;2023-04-25T11:17:53;14.00;54.70
28171;DHT22;15458;53.346;-1.688;2023-04-25T11:20:20;14.00;54.20
28171;DHT22;15458;53.346;-1.688;2023-04-25T11:22:47;14.10;53.80
28171;DHT22;15458;53.346;-1.688;2023-04-25T11:25:14;14.20;53.70
28171;DHT22;15458;53.346;-1.688;2023-04-25T11:28:12;14.40;53.70
28171;DHT22;15458;53.346;-1.688;2023-04-25T11:30:38;14.50;54.50
28171;DHT22;15458;53.346;-1.688;2023-04-25T11:33:04;14.70;53.20
28171;DHT22;15458;53.346;-1.688;2023-04-25T11:35:52;14.80;53.10
28171;DHT22;15458;53.346;-1.688;2023-04-25T11:38:26;14.90;53.00
28171;DHT22;15458;53.346;-1.688;2023-04-25T11:40:53;15.00;52.30
28171;DHT22;15458;53.346;-1.688;2023-04-25T11:43:22;15.20;52.40
28171;DHT22;15458;53.346;-1.688;2023-04-25T11:45:49;15.40;52.40
28171;DHT22;15458;53.346;-1.688;2023-04-25T11:51:43;15.60;52.10
28171;DHT22;15458;53.346;-1.688;2023-04-25T11:54:09;15.60;51.80
28171;DHT22;15458;53.346;-1.688;2023-04-25T11:56:44;15.60;51.20
28171;DHT22;15458;53.346;-1.688;2023-04-25T11:59:25;15.60;50.50
28171;DHT22;15458;53.346;-1.688;2023-04-25T12:01:58;15.60;50.60
28171;DHT22;15458;53.346;-1.688;2023-04-25T12:04:30;15.60;50.70
28171;DHT22;15458;53.346;-1.688;2023-04-25T12:06:57;15.60;50.30
28171;DHT22;15458;53.346;-1.688;2023-04-25T12:09:38;15.70;50.50
28171;DHT22;15458;53.346;-1.688;2023-04-25T12:12:05;16.00;50.50
28171;DHT22;15458;53.346;-1.688;2023-04-25T12:14:35;16.20;50.10
28171;DHT22;15458;53.346;-1.688;2023-04-25T12:17:03;16.20;50.10
28171;DHT22;15458;53.346;-1.688;2023-04-25T12:19:34;16.20;49.90
28171;DHT22;15458;53.346;-1.688;2023-04-25T12:22:00;16.30;49.50
28171;DHT22;15458;53.346;-1.688;2023-04-25T12:24:33;16.30;49.20
28171;DHT22;15458;53.346;-1.688;2023-04-25T12:27:07;16.30;49.10
28171;DHT22;15458;53.346;-1.688;2023-04-25T12:29:36;16.50;48.40
28171;DHT22;15458;53.346;-1.688;2023-04-25T12:32:01;16.70;47.90
28171;DHT22;15458;53.346;-1.688;2023-04-25T12:34:27;16.90;47.40
28171;DHT22;15458;53.346;-1.688;2023-04-25T12:36:53;17.10;47.50
28171;DHT22;15458;53.346;-1.688;2023-04-25T12:39:21;17.20;47.50
28171;DHT22;15458;53.346;-1.688;2023-04-25T12:41:53;17.30;47.50
28171;DHT22;15458;53.346;-1.688;2023-04-25T12:44:22;17.20;47.20
28171;DHT22;15458;53.346;-1.688;2023-04-25T12:46:48;17.30;47.80
28171;DHT22;15458;53.346;-1.688;2023-04-25T12:49:14;17.30;46.90
28171;DHT22;15458;53.346;-1.688;2023-04-25T12:51:40;17.20;46.80
28171;DHT22;15458;53.346;-1.688;2023-04-25T12:54:07;17.20;46.50
28171;DHT22;15458;53.346;-1.688;2023-04-25T12:56:35;17.20;47.10
28171;DHT22;15458;53.346;-1.688;2023-04-25T12:59:10;17.30;47.30
28171;DHT22;15458;53.346;-1.688;2023-04-25T13:01:40;17.50;47.30
28171;DHT22;15458;53.346;-1.688;2023-04-25T13:04:06;17.60;47.20
28171;DHT22;15458;53.346;-1.688;2023-04-25T13:06:34;17.70;47.30
28171;DHT22;15458;53.346;-1.688;2023-04-25T13:09:00;17.70;46.80
28171;DHT22;15458;53.346;-1.688;2023-04-25T13:11:26;17.50;46.60
28171;DHT22;15458;53.346;-1.688;2023-04-25T13:13:51;17.30;47.00
28171;DHT22;15458;53.346;-1.688;2023-04-25T13:16:17;17.10;47.30
28171;DHT22;15458;53.346;-1.688;2023-04-25T13:18:46;17.00;46.90
28171;DHT22;15458;53.346;-1.688;2023-04-25T13:21:13;16.90;46.90
28171;DHT22;15458;53.346;-1.688;2023-04-25T13:23:40;17.20;47.30
28171;DHT22;15458;53.346;-1.688;2023-04-25T13:26:16;17.60;47.20
28171;DHT22;15458;53.346;-1.688;2023-04-25T13:28:42;18.10;46.80
28171;DHT22;15458;53.346;-1.688;2023-04-25T13:31:07;18.20;46.00
28171;DHT22;15458;53.346;-1.688;2023-04-25T13:33:33;18.20;45.80
28171;DHT22;15458;53.346;-1.688;2023-04-25T13:36:00;17.90;45.70
28171;DHT22;15458;53.346;-1.688;2023-04-25T13:38:26;17.50;45.80
28171;DHT22;15458;53.346;-1.688;2023-04-25T13:40:52;17.30;46.10
28171;DHT22;15458;53.346;-1.688;2023-04-25T13:43:19;17.00;46.30
28171;DHT22;15458;53.346;-1.688;2023-04-25T13:45:46;16.60;46.50
28171;DHT22;15458;53.346;-1.688;2023-04-25T13:48:12;16.30;46.80
28171;DHT22;15458;53.346;-1.688;2023-04-25T13:50:37;16.10;46.90
28171;DHT22;15458;53.346;-1.688;2023-04-25T13:53:03;15.80;47.00
28171;DHT22;15458;53.346;-1.688;2023-04-25T13:55:32;15.80;47.10
28171;DHT22;15458;53.346;-1.688;2023-04-25T13:58:00;16.00;47.50
28171;DHT22;15458;53.346;-1.688;2023-04-25T14:00:33;16.30;47.50
28171;DHT22;15458;53.346;-1.688;2023-04-25T14:02:59;16.70;47.20
28171;DHT22;15458;53.346;-1.688;2023-04-25T14:05:26;16.80;46.80
28171;DHT22;15458;53.346;-1.688;2023-04-25T14:07:51;16.70;46.60
28171;DHT22;15458;53.346;-1.688;2023-04-25T14:10:17;16.40;46.60
28171;DHT22;15458;53.346;-1.688;2023-04-25T14:12:43;16.20;46.80
28171;DHT22;15458;53.346;-1.688;2023-04-25T14:15:09;16.10;47.10
28171;DHT22;15458;53.346;-1.688;2023-04-25T14:17:35;16.00;47.10
28171;DHT22;15458;53.346;-1.688;2023-04-25T14:20:00;16.10;46.90
28171;DHT22;15458;53.346;-1.688;2023-04-25T14:22:27;16.30;46.80
28171;DHT22;15458;53.346;-1.688;2023-04-25T14:24:53;16.70;46.70
28171;DHT22;15458;53.346;-1.688;2023-04-25T14:27:19;16.90;46.80
28171;DHT22;15458;53.346;-1.688;2023-04-25T14:29:45;16.80;45.80
28171;DHT22;15458;53.346;-1.688;2023-04-25T14:32:11;16.50;46.30
28171;DHT22;15458;53.346;-1.688;2023-04-25T14:34:37;16.20;46.90
28171;DHT22;15458;53.346;-1.688;2023-04-25T14:37:03;15.90;47.50
28171;DHT22;15458;53.346;-1.688;2023-04-25T14:39:28;15.60;47.80
28171;DHT22;15458;53.346;-1.688;2023-04-25T14:41:54;15.50;48.30
28171;DHT22;15458;53.346;-1.688;2023-04-25T14:44:20;15.30;48.50
28171;DHT22;15458;53.346;-1.688;2023-04-25T14:46:45;15.20;48.60
28171;DHT22;15458;53.346;-1.688;2023-04-25T14:49:11;15.20;48.80
28171;DHT22;15458;53.346;-1.688;2023-04-25T14:51:40;15.00;49.00
28171;DHT22;15458;53.346;-1.688;2023-04-25T14:54:06;14.80;49.00
28171;DHT22;15458;53.346;-1.688;2023-04-25T14:56:32;14.70;49.40
28171;DHT22;15458;53.346;-1.688;2023-04-25T14:58:57;14.50;49.50
28171;DHT22;15458;53.346;-1.688;2023-04-25T15:01:23;14.30;49.90
28171;DHT22;15458;53.346;-1.688;2023-04-25T15:03:49;14.30;50.20
28171;DHT22;15458;53.346;-1.688;2023-04-25T15:06:16;14.20;50.20
28171;DHT22;15458;53.346;-1.688;2023-04-25T15:08:42;14.00;50.20
28171;DHT22;15458;53.346;-1.688;2023-04-25T15:11:07;14.00;50.60
28171;DHT22;15458;53.346;-1.688;2023-04-25T15:13:36;13.90;50.60
28171;DHT22;15458;53.346;-1.688;2023-04-25T15:16:04;13.80;50.60
28171;DHT22;15458;53.346;-1.688;2023-04-25T15:18:31;13.70;50.90
28171;DHT22;15458;53.346;-1.688;2023-04-25T15:20:57;13.60;51.10
28171;DHT22;15458;53.346;-1.688;2023-04-25T15:23:23;13.60;51.10
28171;DHT22;15458;53.346;-1.688;2023-04-25T15:25:50;13.60;51.30
28171;DHT22;15458;53.346;-1.688;2023-04-25T15:28:16;13.60;51.50
28171;DHT22;15458;53.346;-1.688;2023-04-25T15:30:43;13.60;51.50
28171;DHT22;15458;53.346;-1.688;2023-04-25T15:33:08;13.60;51.30